sensor_id;sensor_type;location;lat;lon;timestamp;temperature;humidity
39401;DHT22;54391;50.000;7.360;2022-12-18T00:00:09;-6.50;33.50
39401;DHT22;54391;50.000;7.360;2022-12-18T00:02:39;-6.50;32.80
39401;DHT22;54391;50.000;7.360;2022-12-18T00:05:07;-6.50;32.80
39401;DHT22;54391;50.000;7.360;2022-12-18T00:07:35;-6.50;32.70
39401;DHT22;54391;50.000;7.360;2022-12-18T00:10:04;-6.60;32.60
39401;DHT22;54391;50.000;7.360;2022-12-18T00:12:32;-6.60;33.00
39401;DHT22;54391;50.000;7.360;2022-12-18T00:14:59;-6.60;33.50
39401;DHT22;54391;50.000;7.360;2022-12-18T00:17:29;-6.50;33.30
39401;DHT22;54391;50.000;7.360;2022-12-18T00:19:56;-6.50;34.20
39401;DHT22;54391;50.000;7.360;2022-12-18T00:22:23;-6.40;33.90
39401;DHT22;54391;50.000;7.360;2022-12-18T00:24:50;-6.40;33.90
39401;DHT22;54391;50.000;7.360;2022-12-18T00:27:18;-6.40;32.90
39401;DHT22;54391;50.000;7.360;2022-12-18T00:29:45;-6.30;33.80
39401;DHT22;54391;50.000;7.360;2022-12-18T00:32:12;-6.30;33.30
39401;DHT22;54391;50.000;7.360;2022-12-18T00:34:41;-6.30;32.20
39401;DHT22;54391;50.000;7.360;2022-12-18T00:37:08;-6.40;32.20
39401;DHT22;54391;50.000;7.360;2022-12-18T00:39:35;-6.50;31.30
39401;DHT22;54391;50.000;7.360;2022-12-18T00:42:03;-6.70;31.50
39401;DHT22;54391;50.000;7.360;2022-12-18T00:44:47;-6.80;31.40
39401;DHT22;54391;50.000;7.360;2022-12-18T00:47:15;-6.90;32.10
39401;DHT22;54391;50.000;7.360;2022-12-18T00:49:43;-6.90;33.40
39401;DHT22;54391;50.000;7.360;2022-12-18T00:52:11;-6.90;34.90
39401;DHT22;54391;50.000;7.360;2022-12-18T00:54:38;-6.80;35.50
39401;DHT22;54391;50.000;7.360;2022-12-18T00:57:05;-6.80;35.20
39401;DHT22;54391;50.000;7.360;2022-12-18T00:59:32;-6.80;34.90
39401;DHT22;54391;50.000;7.360;2022-12-18T01:02:00;-6.80;34.60
39401;DHT22;54391;50.000;7.360;2022-12-18T01:04:31;-6.80;35.00
39401;DHT22;54391;50.000;7.360;2022-12-18T01:07:01;-6.80;35.30
39401;DHT22;54391;50.000;7.360;2022-12-18T01:09:28;-6.70;35.30
39401;DHT22;54391;50.000;7.360;2022-12-18T01:11:56;-6.70;35.40
39401;DHT22;54391;50.000;7.360;2022-12-18T01:14:23;-6.70;35.80
39401;DHT22;54391;50.000;7.360;2022-12-18T01:16:50;-6.60;35.80
39401;DHT22;54391;50.000;7.360;2022-12-18T01:19:17;-6.70;35.70
39401;DHT22;54391;50.000;7.360;2022-12-18T01:24:15;-6.60;35.50
39401;DHT22;54391;50.000;7.360;2022-12-18T01:26:42;-6.60;35.00
39401;DHT22;54391;50.000;7.360;2022-12-18T01:31:37;-6.60;35.10
39401;DHT22;54391;50.000;7.360;2022-12-18T01:34:05;-6.60;34.50
39401;DHT22;54391;50.000;7.360;2022-12-18T01:36:36;-6.70;33.30
39401;DHT22;54391;50.000;7.360;2022-12-18T01:39:06;-6.90;34.00
39401;DHT22;54391;50.000;7.360;2022-12-18T01:41:36;-7.00;33.70
39401;DHT22;54391;50.000;7.360;2022-12-18T01:44:50;-7.00;35.20
39401;DHT22;54391;50.000;7.360;2022-12-18T01:47:21;-7.00;34.50
39401;DHT22;54391;50.000;7.360;2022-12-18T01:49:51;-7.10;34.30
39401;DHT22;54391;50.000;7.360;2022-12-18T01:52:19;-7.20;34.10
39401;DHT22;54391;50.000;7.360;2022-12-18T01:54:47;-7.20;34.30
39401;DHT22;54391;50.000;7.360;2022-12-18T01:57:17;-7.20;33.30
39401;DHT22;54391;50.000;7.360;2022-12-18T01:59:46;-7.30;35.00
39401;DHT22;54391;50.000;7.360;2022-12-18T02:02:15;-7.30;34.80
39401;DHT22;54391;50.000;7.360;2022-12-18T02:04:43;-7.30;35.20
39401;DHT22;54391;50.000;7.360;2022-12-18T02:07:17;-7.30;35.10
39401;DHT22;54391;50.000;7.360;2022-12-18T02:09:54;-7.20;33.80
39401;DHT22;54391;50.000;7.360;2022-12-18T02:12:30;-7.30;34.90
39401;DHT22;54391;50.000;7.360;2022-12-18T02:15:04;-7.20;36.10
39401;DHT22;54391;50.000;7.360;2022-12-18T02:17:36;-7.30;35.90
39401;DHT22;54391;50.000;7.360;2022-12-18T02:20:10;-7.40;36.10
39401;DHT22;54391;50.000;7.360;2022-12-18T02:22:43;-7.40;36.60
39401;DHT22;54391;50.000;7.360;2022-12-18T02:25:24;-7.40;36.60
39401;DHT22;54391;50.000;7.360;2022-12-18T02:27:55;-7.40;36.10
39401;DHT22;54391;50.000;7.360;2022-12-18T02:30:27;-7.50;34.30
39401;DHT22;54391;50.000;7.360;2022-12-18T02:32:58;-7.60;34.60
39401;DHT22;54391;50.000;7.360;2022-12-18T02:35:30;-7.80;36.00
39401;DHT22;54391;50.000;7.360;2022-12-18T02:38:01;-7.80;37.50
39401;DHT22;54391;50.000;7.360;2022-12-18T02:40:33;-7.80;38.00
39401;DHT22;54391;50.000;7.360;2022-12-18T02:43:09;-7.60;39.20
39401;DHT22;54391;50.000;7.360;2022-12-18T02:45:46;-7.50;39.40
39401;DHT22;54391;50.000;7.360;2022-12-18T02:48:16;-7.40;38.20
39401;DHT22;54391;50.000;7.360;2022-12-18T02:50:48;-7.40;38.30
39401;DHT22;54391;50.000;7.360;2022-12-18T02:53:24;-7.40;37.80
39401;DHT22;54391;50.000;7.360;2022-12-18T02:56:03;-7.40;36.10
39401;DHT22;54391;50.000;7.360;2022-12-18T02:58:40;-7.60;35.10
39401;DHT22;54391;50.000;7.360;2022-12-18T03:01:21;-7.70;36.80
39401;DHT22;54391;50.000;7.360;2022-12-18T03:03:55;-7.60;37.70
39401;DHT22;54391;50.000;7.360;2022-12-18T03:06:27;-7.50;38.30
39401;DHT22;54391;50.000;7.360;2022-12-18T03:08:59;-7.30;38.80
39401;DHT22;54391;50.000;7.360;2022-12-18T03:11:33;-7.30;36.60
39401;DHT22;54391;50.000;7.360;2022-12-18T03:14:21;-7.60;33.10
39401;DHT22;54391;50.000;7.360;2022-12-18T03:16:53;-7.80;32.00
39401;DHT22;54391;50.000;7.360;2022-12-18T03:19:24;-8.10;31.60
39401;DHT22;54391;50.000;7.360;2022-12-18T03:22:00;-8.20;32.90
39401;DHT22;54391;50.000;7.360;2022-12-18T03:24:37;-8.30;32.30
39401;DHT22;54391;50.000;7.360;2022-12-18T03:27:08;-8.40;31.40
39401;DHT22;54391;50.000;7.360;2022-12-18T03:29:40;-8.50;30.70
39401;DHT22;54391;50.000;7.360;2022-12-18T03:32:16;-8.50;32.40
39401;DHT22;54391;50.000;7.360;2022-12-18T03:34:47;-8.50;33.40
39401;DHT22;54391;50.000;7.360;2022-12-18T03:37:19;-8.60;32.40
39401;DHT22;54391;50.000;7.360;2022-12-18T03:39:47;-8.70;31.90
39401;DHT22;54391;50.000;7.360;2022-12-18T03:42:18;-8.80;33.10
39401;DHT22;54391;50.000;7.360;2022-12-18T03:44:53;-8.90;33.30
39401;DHT22;54391;50.000;7.360;2022-12-18T03:47:27;-9.10;33.00
39401;DHT22;54391;50.000;7.360;2022-12-18T03:50:11;-9.20;33.80
39401;DHT22;54391;50.000;7.360;2022-12-18T03:52:48;-9.20;34.20
39401;DHT22;54391;50.000;7.360;2022-12-18T03:55:18;-9.20;34.00
39401;DHT22;54391;50.000;7.360;2022-12-18T03:57:50;-9.30;34.60
39401;DHT22;54391;50.000;7.360;2022-12-18T04:00:20;-9.40;34.80
39401;DHT22;54391;50.000;7.360;2022-12-18T04:02:54;-9.40;35.30
39401;DHT22;54391;50.000;7.360;2022-12-18T04:05:30;-9.50;36.10
39401;DHT22;54391;50.000;7.360;2022-12-18T04:08:01;-9.50;36.20
39401;DHT22;54391;50.000;7.360;2022-12-18T04:10:31;-9.60;36.70
39401;DHT22;54391;50.000;7.360;2022-12-18T04:13:00;-9.70;37.40
39401;DHT22;54391;50.000;7.360;2022-12-18T04:15:32;-9.70;38.40
39401;DHT22;54391;50.000;7.360;2022-12-18T04:18:03;-9.70;38.20
39401;DHT22;54391;50.000;7.360;2022-12-18T04:20:37;-9.60;37.90
39401;DHT22;54391;50.000;7.360;2022-12-18T04:23:05;-9.50;37.80
39401;DHT22;54391;50.000;7.360;2022-12-18T04:25:32;-9.60;37.10
39401;DHT22;54391;50.000;7.360;2022-12-18T04:30:39;-9.70;37.60
39401;DHT22;54391;50.000;7.360;2022-12-18T04:33:09;-9.70;37.90
39401;DHT22;54391;50.000;7.360;2022-12-18T04:35:38;-9.70;38.60
39401;DHT22;54391;50.000;7.360;2022-12-18T04:38:06;-9.70;38.20
39401;DHT22;54391;50.000;7.360;2022-12-18T04:40:34;-9.70;38.80
39401;DHT22;54391;50.000;7.360;2022-12-18T04:43:03;-9.70;38.10
39401;DHT22;54391;50.000;7.360;2022-12-18T04:45:31;-9.90;38.30
39401;DHT22;54391;50.000;7.360;2022-12-18T04:48:00;-9.90;38.20
39401;DHT22;54391;50.000;7.360;2022-12-18T04:50:30;-9.90;38.30
39401;DHT22;54391;50.000;7.360;2022-12-18T04:55:25;-10.00;37.80
39401;DHT22;54391;50.000;7.360;2022-12-18T04:57:53;-10.10;38.50
39401;DHT22;54391;50.000;7.360;2022-12-18T05:00:21;-9.90;38.60
39401;DHT22;54391;50.000;7.360;2022-12-18T05:02:48;-10.00;38.50
39401;DHT22;54391;50.000;7.360;2022-12-18T05:05:17;-10.10;39.90
39401;DHT22;54391;50.000;7.360;2022-12-18T05:07:44;-10.20;40.30
39401;DHT22;54391;50.000;7.360;2022-12-18T05:10:12;-10.20;40.50
39401;DHT22;54391;50.000;7.360;2022-12-18T05:12:39;-10.10;40.60
39401;DHT22;54391;50.000;7.360;2022-12-18T05:15:24;-10.10;40.50
39401;DHT22;54391;50.000;7.360;2022-12-18T05:17:51;-10.00;41.10
39401;DHT22;54391;50.000;7.360;2022-12-18T05:20:20;-10.00;42.10
39401;DHT22;54391;50.000;7.360;2022-12-18T05:22:48;-9.90;42.20
39401;DHT22;54391;50.000;7.360;2022-12-18T05:25:15;-9.80;41.90
39401;DHT22;54391;50.000;7.360;2022-12-18T05:27:42;-9.90;39.10
39401;DHT22;54391;50.000;7.360;2022-12-18T05:30:11;-9.90;37.40
39401;DHT22;54391;50.000;7.360;2022-12-18T05:32:39;-10.00;38.00
39401;DHT22;54391;50.000;7.360;2022-12-18T05:35:07;-10.10;38.90
39401;DHT22;54391;50.000;7.360;2022-12-18T05:37:37;-10.10;40.80
39401;DHT22;54391;50.000;7.360;2022-12-18T05:40:05;-10.10;41.80
39401;DHT22;54391;50.000;7.360;2022-12-18T05:42:33;-10.30;42.40
39401;DHT22;54391;50.000;7.360;2022-12-18T05:45:00;-9.90;41.40
39401;DHT22;54391;50.000;7.360;2022-12-18T05:47:28;-10.00;40.90
39401;DHT22;54391;50.000;7.360;2022-12-18T05:49:55;-10.00;41.10
39401;DHT22;54391;50.000;7.360;2022-12-18T05:52:22;-9.90;41.70
39401;DHT22;54391;50.000;7.360;2022-12-18T05:54:51;-9.90;42.30
39401;DHT22;54391;50.000;7.360;2022-12-18T05:57:19;-9.90;41.90
39401;DHT22;54391;50.000;7.360;2022-12-18T06:02:14;-10.00;43.20
39401;DHT22;54391;50.000;7.360;2022-12-18T06:04:41;-9.90;44.50
39401;DHT22;54391;50.000;7.360;2022-12-18T06:07:08;-9.90;45.80
39401;DHT22;54391;50.000;7.360;2022-12-18T06:12:05;-9.80;48.70
39401;DHT22;54391;50.000;7.360;2022-12-18T06:14:32;-9.70;48.60
39401;DHT22;54391;50.000;7.360;2022-12-18T06:19:29;-9.70;50.50
39401;DHT22;54391;50.000;7.360;2022-12-18T06:24:24;-9.50;50.50
39401;DHT22;54391;50.000;7.360;2022-12-18T06:26:51;-9.50;50.50
39401;DHT22;54391;50.000;7.360;2022-12-18T06:29:20;-9.50;50.30
39401;DHT22;54391;50.000;7.360;2022-12-18T06:36:43;-9.50;48.80
39401;DHT22;54391;50.000;7.360;2022-12-18T06:39:10;-9.50;48.20
39401;DHT22;54391;50.000;7.360;2022-12-18T06:41:37;-9.70;48.10
39401;DHT22;54391;50.000;7.360;2022-12-18T06:44:04;-9.60;48.90
39401;DHT22;54391;50.000;7.360;2022-12-18T06:46:33;-9.50;49.50
39401;DHT22;54391;50.000;7.360;2022-12-18T06:49:02;-9.60;49.00
39401;DHT22;54391;50.000;7.360;2022-12-18T06:51:30;-9.50;49.10
39401;DHT22;54391;50.000;7.360;2022-12-18T06:53:57;-9.70;48.80
39401;DHT22;54391;50.000;7.360;2022-12-18T06:56:24;-9.50;49.70
39401;DHT22;54391;50.000;7.360;2022-12-18T06:58:51;-9.50;49.70
39401;DHT22;54391;50.000;7.360;2022-12-18T07:01:19;-9.50;49.10
39401;DHT22;54391;50.000;7.360;2022-12-18T07:03:51;-9.50;47.80
39401;DHT22;54391;50.000;7.360;2022-12-18T07:06:21;-9.60;48.70
39401;DHT22;54391;50.000;7.360;2022-12-18T07:08:49;-9.60;49.20
39401;DHT22;54391;50.000;7.360;2022-12-18T07:11:18;-9.60;48.50
39401;DHT22;54391;50.000;7.360;2022-12-18T07:13:45;-9.60;48.70
39401;DHT22;54391;50.000;7.360;2022-12-18T07:16:15;-9.60;49.20
39401;DHT22;54391;50.000;7.360;2022-12-18T07:18:43;-9.40;49.30
39401;DHT22;54391;50.000;7.360;2022-12-18T07:21:15;-9.40;49.80
39401;DHT22;54391;50.000;7.360;2022-12-18T07:26:11;-9.30;49.90
39401;DHT22;54391;50.000;7.360;2022-12-18T07:28:40;-9.30;50.00
39401;DHT22;54391;50.000;7.360;2022-12-18T07:31:10;-9.40;50.60
39401;DHT22;54391;50.000;7.360;2022-12-18T07:33:38;-9.30;51.10
39401;DHT22;54391;50.000;7.360;2022-12-18T07:36:07;-9.30;51.20
39401;DHT22;54391;50.000;7.360;2022-12-18T07:38:36;-9.40;51.30
39401;DHT22;54391;50.000;7.360;2022-12-18T07:41:04;-9.40;50.10
39401;DHT22;54391;50.000;7.360;2022-12-18T07:46:00;-9.40;49.20
39401;DHT22;54391;50.000;7.360;2022-12-18T07:48:27;-9.50;48.50
39401;DHT22;54391;50.000;7.360;2022-12-18T07:50:58;-9.40;49.60
39401;DHT22;54391;50.000;7.360;2022-12-18T07:53:30;-9.20;50.40
39401;DHT22;54391;50.000;7.360;2022-12-18T07:56:03;-9.30;50.00
39401;DHT22;54391;50.000;7.360;2022-12-18T07:58:32;-9.20;51.00
39401;DHT22;54391;50.000;7.360;2022-12-18T08:01:04;-9.10;51.40
39401;DHT22;54391;50.000;7.360;2022-12-18T08:03:32;-8.90;50.50
39401;DHT22;54391;50.000;7.360;2022-12-18T08:06:00;-8.80;48.90
39401;DHT22;54391;50.000;7.360;2022-12-18T08:08:29;-8.80;47.30
39401;DHT22;54391;50.000;7.360;2022-12-18T08:10:57;-8.50;47.00
39401;DHT22;54391;50.000;7.360;2022-12-18T08:13:26;-8.20;45.70
39401;DHT22;54391;50.000;7.360;2022-12-18T08:15:57;-7.90;41.90
39401;DHT22;54391;50.000;7.360;2022-12-18T08:18:25;-7.60;39.00
39401;DHT22;54391;50.000;7.360;2022-12-18T08:20:53;-7.40;35.40
39401;DHT22;54391;50.000;7.360;2022-12-18T08:23:20;-7.10;35.10
39401;DHT22;54391;50.000;7.360;2022-12-18T08:28:16;-6.60;28.90
39401;DHT22;54391;50.000;7.360;2022-12-18T08:30:44;-6.30;26.40
39401;DHT22;54391;50.000;7.360;2022-12-18T08:33:14;-6.10;26.20
39401;DHT22;54391;50.000;7.360;2022-12-18T08:35:42;-5.80;25.10
39401;DHT22;54391;50.000;7.360;2022-12-18T08:38:09;-5.40;24.80
39401;DHT22;54391;50.000;7.360;2022-12-18T08:40:36;-4.90;23.50
39401;DHT22;54391;50.000;7.360;2022-12-18T08:43:04;-5.10;20.10
39401;DHT22;54391;50.000;7.360;2022-12-18T08:46:01;-5.20;19.90
39401;DHT22;54391;50.000;7.360;2022-12-18T08:48:29;-5.20;19.00
39401;DHT22;54391;50.000;7.360;2022-12-18T08:50:58;-4.70;20.40
39401;DHT22;54391;50.000;7.360;2022-12-18T08:53:25;-5.70;21.30
39401;DHT22;54391;50.000;7.360;2022-12-18T08:55:53;-5.90;22.90
39401;DHT22;54391;50.000;7.360;2022-12-18T08:58:21;-5.50;21.90
39401;DHT22;54391;50.000;7.360;2022-12-18T09:00:48;-5.40;20.60
39401;DHT22;54391;50.000;7.360;2022-12-18T09:03:18;-5.20;19.90
39401;DHT22;54391;50.000;7.360;2022-12-18T09:05:46;-4.90;18.30
39401;DHT22;54391;50.000;7.360;2022-12-18T09:10:42;-4.70;19.60
39401;DHT22;54391;50.000;7.360;2022-12-18T09:13:10;-4.60;19.30
39401;DHT22;54391;50.000;7.360;2022-12-18T09:15:41;-4.30;17.70
39401;DHT22;54391;50.000;7.360;2022-12-18T09:18:09;-4.20;18.40
39401;DHT22;54391;50.000;7.360;2022-12-18T09:20:38;-3.80;16.70
39401;DHT22;54391;50.000;7.360;2022-12-18T09:23:06;-3.90;17.40
39401;DHT22;54391;50.000;7.360;2022-12-18T09:25:34;-3.80;16.50
39401;DHT22;54391;50.000;7.360;2022-12-18T09:30:29;-3.10;15.50
39401;DHT22;54391;50.000;7.360;2022-12-18T09:32:59;-2.50;14.50
39401;DHT22;54391;50.000;7.360;2022-12-18T09:35:27;-3.30;16.00
39401;DHT22;54391;50.000;7.360;2022-12-18T09:37:56;-2.60;14.50
39401;DHT22;54391;50.000;7.360;2022-12-18T09:40:25;-2.70;15.10
39401;DHT22;54391;50.000;7.360;2022-12-18T09:42:59;-1.90;11.20
39401;DHT22;54391;50.000;7.360;2022-12-18T09:45:31;-2.00;11.50
39401;DHT22;54391;50.000;7.360;2022-12-18T09:48:05;-2.00;10.50
39401;DHT22;54391;50.000;7.360;2022-12-18T09:50:37;-2.20;11.00
39401;DHT22;54391;50.000;7.360;2022-12-18T09:53:12;-2.60;11.90
39401;DHT22;54391;50.000;7.360;2022-12-18T09:55:42;-2.80;14.10
39401;DHT22;54391;50.000;7.360;2022-12-18T09:58:15;-2.90;14.60
39401;DHT22;54391;50.000;7.360;2022-12-18T10:00:44;-3.20;13.80
39401;DHT22;54391;50.000;7.360;2022-12-18T10:03:14;-3.20;16.00
39401;DHT22;54391;50.000;7.360;2022-12-18T10:05:46;-3.20;16.70
39401;DHT22;54391;50.000;7.360;2022-12-18T10:08:24;-3.60;15.90
39401;DHT22;54391;50.000;7.360;2022-12-18T10:10:54;-2.90;15.20
39401;DHT22;54391;50.000;7.360;2022-12-18T10:13:29;-3.20;15.80
39401;DHT22;54391;50.000;7.360;2022-12-18T10:16:09;-3.20;14.80
39401;DHT22;54391;50.000;7.360;2022-12-18T10:18:55;-3.80;17.50
39401;DHT22;54391;50.000;7.360;2022-12-18T10:21:31;-3.80;18.50
39401;DHT22;54391;50.000;7.360;2022-12-18T10:24:14;-3.70;18.60
39401;DHT22;54391;50.000;7.360;2022-12-18T10:26:44;-3.90;18.20
39401;DHT22;54391;50.000;7.360;2022-12-18T10:29:13;-3.40;17.30
39401;DHT22;54391;50.000;7.360;2022-12-18T10:31:41;-3.20;14.80
39401;DHT22;54391;50.000;7.360;2022-12-18T10:34:09;-3.30;14.70
39401;DHT22;54391;50.000;7.360;2022-12-18T10:36:37;-3.30;15.00
39401;DHT22;54391;50.000;7.360;2022-12-18T10:39:17;-3.60;14.80
39401;DHT22;54391;50.000;7.360;2022-12-18T10:41:44;-4.10;15.80
39401;DHT22;54391;50.000;7.360;2022-12-18T10:44:16;-4.00;16.40
39401;DHT22;54391;50.000;7.360;2022-12-18T10:46:45;-4.20;15.90
39401;DHT22;54391;50.000;7.360;2022-12-18T10:49:21;-3.90;17.20
39401;DHT22;54391;50.000;7.360;2022-12-18T10:51:49;-4.10;16.60
39401;DHT22;54391;50.000;7.360;2022-12-18T10:54:22;-4.30;17.30
39401;DHT22;54391;50.000;7.360;2022-12-18T10:56:49;-4.50;17.90
39401;DHT22;54391;50.000;7.360;2022-12-18T10:59:17;-4.50;18.40
39401;DHT22;54391;50.000;7.360;2022-12-18T11:01:47;-4.30;20.50
39401;DHT22;54391;50.000;7.360;2022-12-18T11:04:18;-4.20;18.00
39401;DHT22;54391;50.000;7.360;2022-12-18T11:06:54;-3.90;16.90
39401;DHT22;54391;50.000;7.360;2022-12-18T11:09:25;-3.90;15.80
39401;DHT22;54391;50.000;7.360;2022-12-18T11:11:54;-4.10;16.90
39401;DHT22;54391;50.000;7.360;2022-12-18T11:14:24;-4.60;18.00
39401;DHT22;54391;50.000;7.360;2022-12-18T11:16:52;-4.30;19.00
39401;DHT22;54391;50.000;7.360;2022-12-18T11:19:26;-4.60;19.00
39401;DHT22;54391;50.000;7.360;2022-12-18T11:21:55;-4.60;19.40
39401;DHT22;54391;50.000;7.360;2022-12-18T11:24:29;-5.20;22.00
39401;DHT22;54391;50.000;7.360;2022-12-18T11:26:58;-5.40;23.30
39401;DHT22;54391;50.000;7.360;2022-12-18T11:29:32;-5.70;26.60
39401;DHT22;54391;50.000;7.360;2022-12-18T11:32:21;-5.50;27.20
39401;DHT22;54391;50.000;7.360;2022-12-18T11:34:55;-5.70;27.10
39401;DHT22;54391;50.000;7.360;2022-12-18T11:37:25;-5.70;28.00
39401;DHT22;54391;50.000;7.360;2022-12-18T11:39:57;-5.90;28.30
39401;DHT22;54391;50.000;7.360;2022-12-18T11:42:34;-5.80;28.90
39401;DHT22;54391;50.000;7.360;2022-12-18T11:45:18;-5.90;28.70
39401;DHT22;54391;50.000;7.360;2022-12-18T11:47:52;-5.70;29.20
39401;DHT22;54391;50.000;7.360;2022-12-18T11:50:26;-5.80;29.20
39401;DHT22;54391;50.000;7.360;2022-12-18T11:52:55;-5.80;28.80
39401;DHT22;54391;50.000;7.360;2022-12-18T11:55:29;-5.80;29.70
39401;DHT22;54391;50.000;7.360;2022-12-18T11:58:02;-5.90;29.10
39401;DHT22;54391;50.000;7.360;2022-12-18T12:00:36;-5.80;29.80
39401;DHT22;54391;50.000;7.360;2022-12-18T12:03:27;-5.90;29.90
39401;DHT22;54391;50.000;7.360;2022-12-18T12:06:10;-5.80;29.40
39401;DHT22;54391;50.000;7.360;2022-12-18T12:08:53;-5.80;29.20
39401;DHT22;54391;50.000;7.360;2022-12-18T12:11:27;-5.80;29.40
39401;DHT22;54391;50.000;7.360;2022-12-18T12:14:07;-6.00;30.70
39401;DHT22;54391;50.000;7.360;2022-12-18T12:16:45;-6.00;30.70
39401;DHT22;54391;50.000;7.360;2022-12-18T12:19:19;-6.00;31.30
39401;DHT22;54391;50.000;7.360;2022-12-18T12:21:54;-6.20;31.60
39401;DHT22;54391;50.000;7.360;2022-12-18T12:24:34;-6.00;33.00
39401;DHT22;54391;50.000;7.360;2022-12-18T12:27:11;-6.20;33.20
39401;DHT22;54391;50.000;7.360;2022-12-18T12:29:43;-6.20;33.70
39401;DHT22;54391;50.000;7.360;2022-12-18T12:32:22;-6.40;34.80
39401;DHT22;54391;50.000;7.360;2022-12-18T12:35:03;-6.50;36.10
39401;DHT22;54391;50.000;7.360;2022-12-18T12:37:39;-6.40;35.90
39401;DHT22;54391;50.000;7.360;2022-12-18T12:40:13;-6.50;37.10
39401;DHT22;54391;50.000;7.360;2022-12-18T12:42:49;-6.50;37.50
39401;DHT22;54391;50.000;7.360;2022-12-18T12:45:38;-6.70;38.00
39401;DHT22;54391;50.000;7.360;2022-12-18T12:48:14;-6.60;40.40
39401;DHT22;54391;50.000;7.360;2022-12-18T12:50:43;-6.50;39.00
39401;DHT22;54391;50.000;7.360;2022-12-18T12:53:21;-6.70;38.80
39401;DHT22;54391;50.000;7.360;2022-12-18T12:55:49;-7.00;43.60
39401;DHT22;54391;50.000;7.360;2022-12-18T12:58:26;-7.10;47.30
39401;DHT22;54391;50.000;7.360;2022-12-18T13:01:11;-7.20;49.70
39401;DHT22;54391;50.000;7.360;2022-12-18T13:03:49;-7.00;49.70
39401;DHT22;54391;50.000;7.360;2022-12-18T13:06:27;-7.10;50.60
39401;DHT22;54391;50.000;7.360;2022-12-18T13:08:57;-7.20;51.00
39401;DHT22;54391;50.000;7.360;2022-12-18T13:11:40;-7.30;52.30
39401;DHT22;54391;50.000;7.360;2022-12-18T13:14:29;-7.30;53.70
39401;DHT22;54391;50.000;7.360;2022-12-18T13:20:07;-7.00;50.70
39401;DHT22;54391;50.000;7.360;2022-12-18T13:22:37;-6.90;48.90
39401;DHT22;54391;50.000;7.360;2022-12-18T13:25:28;-6.90;49.10
39401;DHT22;54391;50.000;7.360;2022-12-18T13:28:06;-7.00;48.60
39401;DHT22;54391;50.000;7.360;2022-12-18T13:30:59;-7.00;49.70
39401;DHT22;54391;50.000;7.360;2022-12-18T13:33:39;-7.00;49.60
39401;DHT22;54391;50.000;7.360;2022-12-18T13:36:16;-7.00;49.30
39401;DHT22;54391;50.000;7.360;2022-12-18T13:38:44;-7.00;50.20
39401;DHT22;54391;50.000;7.360;2022-12-18T13:41:26;-7.00;49.90
39401;DHT22;54391;50.000;7.360;2022-12-18T13:43:55;-6.80;51.50
39401;DHT22;54391;50.000;7.360;2022-12-18T13:46:27;-7.00;50.70
39401;DHT22;54391;50.000;7.360;2022-12-18T13:48:58;-6.80;50.80
39401;DHT22;54391;50.000;7.360;2022-12-18T13:51:31;-7.00;50.50
39401;DHT22;54391;50.000;7.360;2022-12-18T13:54:00;-7.00;50.30
39401;DHT22;54391;50.000;7.360;2022-12-18T13:56:31;-7.20;52.40
39401;DHT22;54391;50.000;7.360;2022-12-18T13:59:19;-7.30;54.40
39401;DHT22;54391;50.000;7.360;2022-12-18T14:01:52;-7.20;55.10
39401;DHT22;54391;50.000;7.360;2022-12-18T14:04:22;-7.10;54.90
39401;DHT22;54391;50.000;7.360;2022-12-18T14:06:53;-7.10;53.10
39401;DHT22;54391;50.000;7.360;2022-12-18T14:09:25;-7.10;52.50
39401;DHT22;54391;50.000;7.360;2022-12-18T14:11:53;-7.10;53.10
39401;DHT22;54391;50.000;7.360;2022-12-18T14:14:45;-7.10;53.10
39401;DHT22;54391;50.000;7.360;2022-12-18T14:17:15;-7.10;53.50
39401;DHT22;54391;50.000;7.360;2022-12-18T14:19:44;-7.10;53.20
39401;DHT22;54391;50.000;7.360;2022-12-18T14:22:16;-7.10;53.10
39401;DHT22;54391;50.000;7.360;2022-12-18T14:24:44;-7.00;53.40
39401;DHT22;54391;50.000;7.360;2022-12-18T14:27:20;-7.00;53.00
39401;DHT22;54391;50.000;7.360;2022-12-18T14:29:48;-7.00;52.80
39401;DHT22;54391;50.000;7.360;2022-12-18T14:32:17;-7.00;53.50
39401;DHT22;54391;50.000;7.360;2022-12-18T14:34:47;-6.90;53.30
39401;DHT22;54391;50.000;7.360;2022-12-18T14:37:16;-7.00;52.80
39401;DHT22;54391;50.000;7.360;2022-12-18T14:39:55;-7.00;54.10
39401;DHT22;54391;50.000;7.360;2022-12-18T14:42:24;-7.00;54.40
39401;DHT22;54391;50.000;7.360;2022-12-18T14:48:00;-7.00;55.40
39401;DHT22;54391;50.000;7.360;2022-12-18T14:53:00;-7.10;57.70
39401;DHT22;54391;50.000;7.360;2022-12-18T14:55:29;-7.20;58.00
39401;DHT22;54391;50.000;7.360;2022-12-18T14:57:56;-7.20;59.10
39401;DHT22;54391;50.000;7.360;2022-12-18T15:00:25;-7.20;59.60
39401;DHT22;54391;50.000;7.360;2022-12-18T15:02:54;-7.20;59.60
39401;DHT22;54391;50.000;7.360;2022-12-18T15:05:27;-5.90;60.90
39401;DHT22;54391;50.000;7.360;2022-12-18T15:07:57;-7.20;60.40
39401;DHT22;54391;50.000;7.360;2022-12-18T15:10:26;-7.20;60.80
39401;DHT22;54391;50.000;7.360;2022-12-18T15:13:08;-7.20;61.40
39401;DHT22;54391;50.000;7.360;2022-12-18T15:15:46;-7.30;62.00
39401;DHT22;54391;50.000;7.360;2022-12-18T15:18:15;-7.30;62.00
39401;DHT22;54391;50.000;7.360;2022-12-18T15:20:48;-7.20;63.20
39401;DHT22;54391;50.000;7.360;2022-12-18T15:23:18;-7.20;63.30
39401;DHT22;54391;50.000;7.360;2022-12-18T15:25:48;-6.60;63.40
39401;DHT22;54391;50.000;7.360;2022-12-18T15:28:22;-7.10;62.90
39401;DHT22;54391;50.000;7.360;2022-12-18T15:31:02;-7.20;63.30
39401;DHT22;54391;50.000;7.360;2022-12-18T15:33:32;-7.10;63.40
39401;DHT22;54391;50.000;7.360;2022-12-18T15:36:03;-7.00;62.10
39401;DHT22;54391;50.000;7.360;2022-12-18T15:38:31;-7.00;61.40
39401;DHT22;54391;50.000;7.360;2022-12-18T15:40:59;-7.00;60.60
39401;DHT22;54391;50.000;7.360;2022-12-18T15:43:29;-7.00;60.70
39401;DHT22;54391;50.000;7.360;2022-12-18T15:46:04;-7.00;60.10
39401;DHT22;54391;50.000;7.360;2022-12-18T15:48:33;-7.00;60.80
39401;DHT22;54391;50.000;7.360;2022-12-18T15:51:08;-7.00;59.80
39401;DHT22;54391;50.000;7.360;2022-12-18T15:53:36;-7.00;60.80
39401;DHT22;54391;50.000;7.360;2022-12-18T15:56:07;-7.00;60.20
39401;DHT22;54391;50.000;7.360;2022-12-18T15:58:53;-7.00;62.10
39401;DHT22;54391;50.000;7.360;2022-12-18T16:01:20;-6.90;61.30
39401;DHT22;54391;50.000;7.360;2022-12-18T16:03:49;-6.90;61.00
39401;DHT22;54391;50.000;7.360;2022-12-18T16:06:17;-7.00;61.20
39401;DHT22;54391;50.000;7.360;2022-12-18T16:08:45;-7.00;62.00
39401;DHT22;54391;50.000;7.360;2022-12-18T16:11:21;-7.00;61.80
39401;DHT22;54391;50.000;7.360;2022-12-18T16:14:05;-6.90;61.50
39401;DHT22;54391;50.000;7.360;2022-12-18T16:16:32;-6.90;60.90
39401;DHT22;54391;50.000;7.360;2022-12-18T16:21:30;-7.00;60.70
39401;DHT22;54391;50.000;7.360;2022-12-18T16:23:57;-6.90;61.50
39401;DHT22;54391;50.000;7.360;2022-12-18T16:26:24;-6.90;61.50
39401;DHT22;54391;50.000;7.360;2022-12-18T16:31:19;-6.90;61.80
39401;DHT22;54391;50.000;7.360;2022-12-18T16:36:14;-6.90;61.00
39401;DHT22;54391;50.000;7.360;2022-12-18T16:38:43;-6.90;62.00
39401;DHT22;54391;50.000;7.360;2022-12-18T16:41:18;-6.80;62.00
39401;DHT22;54391;50.000;7.360;2022-12-18T16:43:58;-6.90;62.00
39401;DHT22;54391;50.000;7.360;2022-12-18T16:46:25;-6.90;62.60
39401;DHT22;54391;50.000;7.360;2022-12-18T16:48:52;-6.90;63.30